createdAt,value
2023-02-27T00:01:36.735Z,103095.06
2023-02-27T00:04:03.220Z,103101.41
2023-02-27T00:06:29.558Z,103098.84
2023-02-27T00:08:56.006Z,103109.59
2023-02-27T00:11:22.351Z,103107.75
2023-02-27T00:13:48.660Z,103109.59
2023-02-27T00:16:15.030Z,103106.03
2023-02-27T00:18:41.630Z,103107.84
2023-02-27T00:21:08.037Z,103108.88
2023-02-27T00:23:34.442Z,103107.03
2023-02-27T00:26:00.894Z,103108.81
2023-02-27T00:28:28.373Z,103103.53
2023-02-27T00:30:54.829Z,103109.78
2023-02-27T00:33:21.706Z,103109.69
2023-02-27T00:35:58.773Z,103109.59
2023-02-27T00:38:25.752Z,103095.47
2023-02-27T00:40:52.330Z,103100.84
2023-02-27T00:43:18.647Z,103100.84
2023-02-27T00:45:45.118Z,103096.56
2023-02-27T00:48:11.522Z,103103.78
2023-02-27T00:50:38.118Z,103097.56
2023-02-27T00:53:04.684Z,103099.34
2023-02-27T00:55:31.193Z,103091.53
2023-02-27T00:57:57.542Z,103087.94
2023-02-27T01:00:24.037Z,103084.50
2023-02-27T01:02:50.387Z,103087.09
2023-02-27T01:05:16.798Z,103096.88
2023-02-27T01:07:43.183Z,103092.41
2023-02-27T01:10:10.754Z,103098.69
2023-02-27T01:12:37.199Z,103088.91
2023-02-27T01:15:05.543Z,103088.16
2023-02-27T01:17:32.669Z,103097.03
2023-02-27T01:19:59.163Z,103096.31
2023-02-27T01:22:25.657Z,103106.94
2023-02-27T01:24:52.067Z,103099.03
2023-02-27T01:27:18.509Z,103092.84
2023-02-27T01:29:44.871Z,103093.69
2023-02-27T01:32:11.504Z,103097.38
2023-02-27T01:34:37.856Z,103106.28
2023-02-27T01:37:04.177Z,103101.03
2023-02-27T01:39:30.595Z,103097.59
2023-02-27T01:41:56.906Z,103094.03
2023-02-27T01:44:27.629Z,103087.00
2023-02-27T01:46:53.969Z,103086.13
2023-02-27T01:49:32.261Z,103088.72
2023-02-27T01:52:03.357Z,103083.44
2023-02-27T01:54:31.989Z,103087.88
2023-02-27T01:56:58.517Z,103088.75
2023-02-27T01:59:24.925Z,103093.19
2023-02-27T02:01:51.418Z,103086.19
2023-02-27T02:04:36.495Z,103087.97
2023-02-27T02:07:09.356Z,103089.78
2023-02-27T02:09:42.565Z,103082.69
2023-02-27T02:12:11.629Z,103080.09
2023-02-27T02:14:37.977Z,103085.47
2023-02-27T02:17:30.497Z,103089.03
2023-02-27T02:20:34.007Z,103090.88
2023-02-27T02:23:15.484Z,103091.72
2023-02-27T02:25:50.953Z,103089.13
2023-02-27T02:28:39.122Z,103094.50
2023-02-27T02:31:24.272Z,103086.56
2023-02-27T02:34:08.145Z,103091.00
2023-02-27T02:36:59.357Z,103091.94
2023-02-27T02:39:31.764Z,103092.84
2023-02-27T02:42:13.575Z,103092.84
2023-02-27T02:44:55.209Z,103099.06
2023-02-27T02:47:52.960Z,103098.16
2023-02-27T02:50:27.102Z,103091.91
2023-02-27T02:53:14.832Z,103100.81
2023-02-27T02:55:44.106Z,103098.16
2023-02-27T02:58:25.577Z,103099.03
2023-02-27T03:01:10.869Z,103095.44
2023-02-27T03:03:53.359Z,103103.47
2023-02-27T03:06:33.432Z,103100.81
2023-02-27T03:09:07.128Z,103096.41
2023-02-27T03:11:39.046Z,103093.78
2023-02-27T03:14:14.602Z,103096.41
2023-02-27T03:16:44.262Z,103099.06
2023-02-27T03:19:18.134Z,103098.16
2023-02-27T03:22:00.412Z,103092.84
2023-02-27T03:24:33.246Z,103104.41
2023-02-27T03:27:01.683Z,103096.47
2023-02-27T03:29:37.471Z,103102.72
2023-02-27T03:32:12.436Z,103095.63
2023-02-27T03:34:41.681Z,103095.66
2023-02-27T03:37:26.417Z,103092.13
2023-02-27T03:40:11.229Z,103084.22
2023-02-27T03:42:47.795Z,103082.44
2023-02-27T03:45:24.292Z,103090.38
2023-02-27T03:47:51.441Z,103079.75
2023-02-27T03:50:18.180Z,103084.22
2023-02-27T03:52:45.644Z,103084.25
2023-02-27T03:55:18.243Z,103093.94
2023-02-27T03:57:47.536Z,103085.94
2023-02-27T04:00:17.714Z,103093.03
2023-02-27T04:02:46.343Z,103098.38
2023-02-27T04:05:13.026Z,103094.84
2023-02-27T04:08:18.078Z,103106.31
2023-02-27T04:11:15.122Z,103101.94
2023-02-27T04:14:00.246Z,103116.06
2023-02-27T04:16:39.786Z,103111.63
2023-02-27T04:19:29.118Z,103109.00
2023-02-27T04:22:20.618Z,103117.88
2023-02-27T04:25:26.718Z,103120.59
2023-02-27T04:28:15.688Z,103129.41
2023-02-27T04:30:55.874Z,103125.88
2023-02-27T04:33:35.035Z,103124.13
2023-02-27T04:36:28.950Z,103123.28
2023-02-27T04:39:03.245Z,103131.25
2023-02-27T04:41:37.612Z,103135.72
2023-02-27T04:44:07.276Z,103133.06
2023-02-27T04:46:36.196Z,103127.81
2023-02-27T04:49:12.262Z,103139.25
2023-02-27T04:51:47.925Z,103134.88
2023-02-27T04:54:18.349Z,103134.88
2023-02-27T04:56:51.318Z,103144.63
2023-02-27T04:59:23.550Z,103149.03
2023-02-27T05:02:15.716Z,103141.03
2023-02-27T05:04:44.797Z,103141.03
2023-02-27T05:07:18.323Z,103141.88
2023-02-27T05:09:52.474Z,103143.63
2023-02-27T05:12:40.542Z,103147.19
2023-02-27T05:15:24.016Z,103145.47
2023-02-27T05:17:59.330Z,103151.69
2023-02-27T05:20:33.020Z,103151.72
2023-02-27T05:23:19.185Z,103150.84
2023-02-27T05:25:54.471Z,103162.38
2023-02-27T05:28:32.944Z,103163.28
2023-02-27T05:31:03.607Z,103161.50
2023-02-27T05:33:50.710Z,103165.00
2023-02-27T05:36:28.783Z,103167.69
2023-02-27T05:38:59.674Z,103166.81
2023-02-27T05:41:31.487Z,103170.34
2023-02-27T05:44:03.671Z,103162.44
2023-02-27T05:46:35.744Z,103163.28
2023-02-27T05:49:10.381Z,103159.78
2023-02-27T05:51:40.576Z,103165.94
2023-02-27T05:54:13.541Z,103165.06
2023-02-27T05:56:43.689Z,103169.50
2023-02-27T05:59:18.058Z,103161.53
2023-02-27T06:01:46.393Z,103166.84
2023-02-27T06:04:13.125Z,103173.03
2023-02-27T06:06:39.936Z,103171.28
2023-02-27T06:09:06.292Z,103177.44
2023-02-27T06:11:32.617Z,103187.19
2023-02-27T06:13:59.006Z,103193.34
2023-02-27T06:16:25.566Z,103195.13
2023-02-27T06:18:52.075Z,103199.53
2023-02-27T06:21:18.751Z,103208.38
2023-02-27T06:23:45.046Z,103210.16
2023-02-27T06:26:11.526Z,103213.69
2023-02-27T06:28:37.902Z,103211.94
2023-02-27T06:31:04.425Z,103214.56
2023-02-27T06:33:30.776Z,103212.81
2023-02-27T06:35:57.186Z,103227.78
2023-02-27T06:38:23.645Z,103229.59
2023-02-27T06:40:51.358Z,103233.09
2023-02-27T06:43:17.782Z,103233.97
2023-02-27T06:45:44.099Z,103239.28
2023-02-27T06:48:10.431Z,103236.63
2023-02-27T06:50:36.777Z,103227.78
2023-02-27T06:53:03.090Z,103231.31
2023-02-27T06:55:29.396Z,103232.16
2023-02-27T06:57:55.819Z,103232.16
2023-02-27T07:00:22.594Z,103240.06
2023-02-27T07:02:48.998Z,103232.09
2023-02-27T07:05:15.502Z,103233.81
2023-02-27T07:07:42.111Z,103240.78
2023-02-27T07:10:11.945Z,103244.16
2023-02-27T07:12:39.850Z,103244.09
2023-02-27T07:15:07.731Z,103240.44
2023-02-27T07:17:34.279Z,103233.28
2023-02-27T07:20:00.608Z,103234.91
2023-02-27T07:22:27.077Z,103239.16
2023-02-27T07:24:53.396Z,103230.94
2023-02-27T07:27:22.381Z,103233.34
2023-02-27T07:29:48.806Z,103234.81
2023-02-27T07:32:17.765Z,103234.34
2023-02-27T07:34:44.349Z,103230.47
2023-02-27T07:37:11.194Z,103236.28
2023-02-27T07:39:38.753Z,103227.88
2023-02-27T07:42:05.541Z,103232.66
2023-02-27T07:44:31.961Z,103228.78
2023-02-27T07:46:58.636Z,103234.53
2023-02-27T07:49:25.128Z,103234.72
2023-02-27T07:51:51.498Z,103235.00
2023-02-27T07:54:17.946Z,103233.34
2023-02-27T07:56:44.336Z,103229.34
2023-02-27T07:59:10.813Z,103230.69
2023-02-27T08:01:37.352Z,103223.84
2023-02-27T08:04:03.837Z,103228.91
2023-02-27T08:06:30.534Z,103241.47
2023-02-27T08:08:57.041Z,103236.81
2023-02-27T08:11:23.820Z,103240.34
2023-02-27T08:14:05.677Z,103251.19
2023-02-27T08:16:32.662Z,103246.41
2023-02-27T08:19:00.537Z,103239.91
2023-02-27T08:21:27.906Z,103237.78
2023-02-27T08:23:54.733Z,103242.47
2023-02-27T08:26:21.473Z,103240.50
2023-02-27T08:28:48.309Z,103259.25
2023-02-27T08:31:14.871Z,103243.81
2023-02-27T08:33:41.381Z,103247.63
2023-02-27T08:36:08.169Z,103253.03
2023-02-27T08:38:34.674Z,103260.72
2023-02-27T08:41:01.120Z,103254.63
2023-02-27T08:43:27.560Z,103267.69
2023-02-27T08:45:53.963Z,103262.78
2023-02-27T08:48:20.417Z,103260.69
2023-02-27T08:50:47.497Z,103265.13
2023-02-27T08:53:14.393Z,103271.81
2023-02-27T08:55:40.771Z,103265.88
2023-02-27T08:58:07.296Z,103266.22
2023-02-27T09:00:33.910Z,103269.50
2023-02-27T09:03:00.633Z,103266.09
2023-02-27T09:05:27.931Z,103266.84
2023-02-27T09:07:54.358Z,103269.41
2023-02-27T09:10:21.305Z,103273.88
2023-02-27T09:12:47.690Z,103267.47
2023-02-27T09:15:14.042Z,103268.84
2023-02-27T09:17:40.359Z,103266.91
2023-02-27T09:20:09.580Z,103268.72
2023-02-27T09:22:36.372Z,103271.16
2023-02-27T09:25:02.829Z,103274.50
2023-02-27T09:27:29.190Z,103271.16
2023-02-27T09:29:55.612Z,103275.06
2023-02-27T09:32:26.284Z,103271.50
2023-02-27T09:34:52.992Z,103269.16
2023-02-27T09:37:19.642Z,103277.16
2023-02-27T09:39:46.525Z,103272.06
2023-02-27T09:42:20.694Z,103262.16
2023-02-27T09:44:53.599Z,103258.78
2023-02-27T09:47:29.254Z,103260.78
2023-02-27T09:50:08.427Z,103266.91
2023-02-27T09:52:36.784Z,103269.69
2023-02-27T09:55:11.644Z,103271.53
2023-02-27T09:57:44.482Z,103266.97
2023-02-27T10:00:36.878Z,103265.41
2023-02-27T10:03:22.048Z,103260.66
2023-02-27T10:06:09.560Z,103265.50
2023-02-27T10:08:46.027Z,103261.91
2023-02-27T10:11:15.192Z,103271.31
2023-02-27T10:14:13.918Z,103267.72
2023-02-27T10:16:42.213Z,103265.50
2023-02-27T10:19:16.866Z,103269.28
2023-02-27T10:21:48.826Z,103263.19
2023-02-27T10:24:36.962Z,103259.34
2023-02-27T10:27:06.385Z,103252.78
2023-02-27T10:29:36.256Z,103258.22
2023-02-27T10:32:07.724Z,103249.91
2023-02-27T10:34:35.330Z,103255.72
2023-02-27T10:37:04.662Z,103252.44
2023-02-27T10:39:40.793Z,103259.81
2023-02-27T10:42:12.208Z,103263.59
2023-02-27T10:44:38.580Z,103269.41
2023-02-27T10:47:05.078Z,103264.16
2023-02-27T10:49:33.658Z,103276.22
2023-02-27T10:52:08.211Z,103274.91
2023-02-27T10:54:34.918Z,103267.56
2023-02-27T10:57:02.998Z,103256.22
2023-02-27T10:59:33.189Z,103263.91
2023-02-27T11:02:03.041Z,103252.53
2023-02-27T11:04:33.819Z,103247.16
2023-02-27T11:07:03.092Z,103258.53
2023-02-27T11:09:32.279Z,103245.06
2023-02-27T11:12:29.347Z,103246.09
2023-02-27T11:15:01.806Z,103227.72
2023-02-27T11:17:31.426Z,103222.84
2023-02-27T11:19:59.414Z,103221.91
2023-02-27T11:22:28.960Z,103213.13
2023-02-27T11:25:23.095Z,103196.38
2023-02-27T11:27:50.203Z,103200.78
2023-02-27T11:30:23.951Z,103201.94
2023-02-27T11:32:50.930Z,103186.97
2023-02-27T11:35:33.118Z,103189.44
2023-02-27T11:38:06.472Z,103199.38
2023-02-27T11:40:36.647Z,103207.91
2023-02-27T11:43:16.976Z,103203.56
2023-02-27T11:46:11.975Z,103190.31
2023-02-27T11:48:39.916Z,103177.44
2023-02-27T11:51:15.039Z,103170.16
2023-02-27T11:53:44.539Z,103176.28
2023-02-27T11:56:16.621Z,103175.84
2023-02-27T11:58:57.127Z,103175.78
2023-02-27T12:01:29.702Z,103168.00
2023-02-27T12:04:16.636Z,103160.78
2023-02-27T12:06:55.541Z,103161.69
2023-02-27T12:09:38.476Z,103163.53
2023-02-27T12:12:15.550Z,103149.16
2023-02-27T12:14:48.862Z,103162.88
2023-02-27T12:17:23.103Z,103150.47
2023-02-27T12:20:04.381Z,103160.50
2023-02-27T12:22:37.914Z,103171.19
2023-02-27T12:25:11.990Z,103154.53
2023-02-27T12:27:54.177Z,103158.59
2023-02-27T12:30:29.124Z,103157.19
2023-02-27T12:33:29.503Z,103144.25
2023-02-27T12:36:01.228Z,103148.22
2023-02-27T12:38:27.789Z,103147.00
2023-02-27T12:41:19.049Z,103131.06
2023-02-27T12:44:27.854Z,103148.53
2023-02-27T12:47:06.279Z,103142.72
2023-02-27T12:50:02.749Z,103137.75
2023-02-27T12:52:52.729Z,103138.94
2023-02-27T12:55:25.989Z,103145.59
2023-02-27T12:58:24.867Z,103134.63
2023-02-27T13:01:08.079Z,103140.06
2023-02-27T13:03:40.535Z,103157.31
2023-02-27T13:06:19.274Z,103148.16
2023-02-27T13:09:14.942Z,103158.19
2023-02-27T13:12:00.558Z,103152.91
2023-02-27T13:14:32.753Z,103149.19
2023-02-27T13:17:23.465Z,103139.53
2023-02-27T13:20:02.507Z,103126.63
2023-02-27T13:22:38.656Z,103134.53
2023-02-27T13:25:13.199Z,103146.53
2023-02-27T13:27:45.081Z,103140.31
2023-02-27T13:30:21.633Z,103127.69
2023-02-27T13:33:06.378Z,103119.28
2023-02-27T13:35:58.664Z,103118.38
2023-02-27T13:38:45.297Z,103118.97
2023-02-27T13:41:21.038Z,103128.41
2023-02-27T13:43:52.454Z,103126.69
2023-02-27T13:46:26.514Z,103132.72
2023-02-27T13:49:28.728Z,103138.56
2023-02-27T13:51:56.972Z,103140.41
2023-02-27T13:54:29.332Z,103140.22
2023-02-27T13:56:55.737Z,103139.16
2023-02-27T13:59:35.503Z,103131.34
2023-02-27T14:02:10.997Z,103122.28
2023-02-27T14:04:48.365Z,103120.34
2023-02-27T14:07:18.176Z,103105.97
2023-02-27T14:09:46.568Z,103115.91
2023-02-27T14:12:46.735Z,103120.22
2023-02-27T14:15:15.928Z,103128.22
2023-02-27T14:17:44.475Z,103126.50
2023-02-27T14:20:10.813Z,103123.09
2023-02-27T14:23:00.308Z,103127.69
2023-02-27T14:25:33.066Z,103117.19
2023-02-27T14:28:00.398Z,103111.16
2023-02-27T14:30:34.394Z,103135.44
2023-02-27T14:33:08.182Z,103115.16
2023-02-27T14:35:36.007Z,103122.97
2023-02-27T14:38:09.625Z,103107.94
2023-02-27T14:40:43.062Z,103110.94
2023-02-27T14:43:27.849Z,103102.03
2023-02-27T14:45:54.949Z,103107.28
2023-02-27T14:48:27.552Z,103104.00
2023-02-27T14:50:54.441Z,103106.88
2023-02-27T14:53:23.963Z,103111.94
2023-02-27T14:55:55.838Z,103109.06
2023-02-27T14:58:23.622Z,103126.31
2023-02-27T15:00:56.112Z,103126.50
2023-02-27T15:03:25.844Z,103120.53
2023-02-27T15:05:57.592Z,103130.03
2023-02-27T15:08:28.257Z,103126.25
2023-02-27T15:10:57.061Z,103122.91
2023-02-27T15:13:36.312Z,103125.16
2023-02-27T15:16:41.500Z,103115.97
2023-02-27T15:19:16.366Z,103115.50
2023-02-27T15:21:49.058Z,103111.63
2023-02-27T15:24:26.296Z,103110.75
2023-02-27T15:27:02.094Z,103108.59
2023-02-27T15:29:55.729Z,103101.91
2023-02-27T15:32:33.006Z,103104.66
2023-02-27T15:35:12.072Z,103100.13
2023-02-27T15:37:39.038Z,103103.97
2023-02-27T15:40:15.007Z,103120.03
2023-02-27T15:42:41.628Z,103118.84
2023-02-27T15:45:10.810Z,103136.09
2023-02-27T15:47:39.070Z,103134.19
2023-02-27T15:50:08.515Z,103144.75
2023-02-27T15:52:43.294Z,103144.28
2023-02-27T15:55:15.512Z,103137.81
2023-02-27T15:57:56.538Z,103139.06
2023-02-27T16:00:31.815Z,103127.56
2023-02-27T16:02:59.427Z,103125.91
2023-02-27T16:05:44.173Z,103118.47
2023-02-27T16:08:18.265Z,103111.44
2023-02-27T16:10:46.364Z,103106.56
2023-02-27T16:13:25.326Z,103115.84
2023-02-27T16:16:06.230Z,103109.44
2023-02-27T16:18:36.454Z,103115.13
2023-02-27T16:21:12.921Z,103114.69
2023-02-27T16:23:39.589Z,103114.28
2023-02-27T16:26:27.203Z,103123.66
2023-02-27T16:29:06.553Z,103120.72
2023-02-27T16:31:34.705Z,103127.19
2023-02-27T16:34:13.066Z,103122.22
2023-02-27T16:36:52.463Z,103136.34
2023-02-27T16:39:19.206Z,103138.59
2023-02-27T16:41:45.724Z,103150.53
2023-02-27T16:44:12.474Z,103141.97
2023-02-27T16:46:38.989Z,103139.06
2023-02-27T16:49:19.139Z,103149.72
2023-02-27T16:51:47.818Z,103142.59
2023-02-27T16:54:17.076Z,103154.91
2023-02-27T16:56:45.203Z,103144.00
2023-02-27T16:59:20.467Z,103148.53
2023-02-27T17:01:46.807Z,103152.28
2023-02-27T17:04:24.934Z,103150.31
2023-02-27T17:06:52.367Z,103150.53
2023-02-27T17:09:19.316Z,103156.28
2023-02-27T17:11:46.097Z,103165.06
2023-02-27T17:14:12.818Z,103160.94
2023-02-27T17:16:39.382Z,103162.06
2023-02-27T17:19:05.759Z,103159.97
2023-02-27T17:21:32.803Z,103163.59
2023-02-27T17:23:59.422Z,103164.06
2023-02-27T17:26:26.148Z,103170.47
2023-02-27T17:28:53.518Z,103163.22
2023-02-27T17:31:19.908Z,103173.44
2023-02-27T17:33:46.213Z,103177.75
2023-02-27T17:36:13.733Z,103179.63
2023-02-27T17:38:40.084Z,103176.28
2023-02-27T17:41:12.346Z,103183.53
2023-02-27T17:43:39.816Z,103177.94
2023-02-27T17:46:08.075Z,103188.72
2023-02-27T17:48:35.542Z,103188.13
2023-02-27T17:51:11.452Z,103193.09
2023-02-27T17:53:39.568Z,103188.28
2023-02-27T17:56:06.651Z,103187.56
2023-02-27T17:58:33.313Z,103187.19
2023-02-27T18:01:15.485Z,103195.41
2023-02-27T18:03:42.397Z,103199.13
2023-02-27T18:06:08.777Z,103198.97
2023-02-27T18:08:36.313Z,103200.06
2023-02-27T18:11:02.889Z,103197.56
2023-02-27T18:13:30.037Z,103194.06
2023-02-27T18:15:56.727Z,103197.00
2023-02-27T18:18:23.595Z,103197.44
2023-02-27T18:21:01.111Z,103198.34
2023-02-27T18:23:27.661Z,103201.13
2023-02-27T18:25:56.686Z,103211.50
2023-02-27T18:28:24.104Z,103213.19
2023-02-27T18:30:50.550Z,103221.38
2023-02-27T18:33:17.345Z,103217.34
2023-02-27T18:35:43.898Z,103209.81
2023-02-27T18:38:10.628Z,103213.25
2023-02-27T18:40:39.930Z,103227.44
2023-02-27T18:43:06.479Z,103212.69
2023-02-27T18:45:33.304Z,103223.28
2023-02-27T18:47:59.736Z,103223.72
2023-02-27T18:50:27.254Z,103227.63
2023-02-27T18:52:53.792Z,103228.47
2023-02-27T18:55:20.288Z,103230.56
2023-02-27T18:57:46.637Z,103232.63
2023-02-27T19:00:13.943Z,103235.56
2023-02-27T19:02:41.458Z,103243.06
2023-02-27T19:05:09.238Z,103242.88
2023-02-27T19:07:35.616Z,103233.53
2023-02-27T19:10:01.979Z,103241.81
2023-02-27T19:12:28.340Z,103240.88
2023-02-27T19:14:54.846Z,103234.66
2023-02-27T19:17:21.350Z,103236.72
2023-02-27T19:19:47.691Z,103238.75
2023-02-27T19:22:14.120Z,103237.56
2023-02-27T19:24:41.649Z,103243.31
2023-02-27T19:27:08.178Z,103243.31
2023-02-27T19:29:34.566Z,103244.75
2023-02-27T19:32:01.008Z,103242.88
2023-02-27T19:34:27.766Z,103246.28
2023-02-27T19:36:54.360Z,103238.13
2023-02-27T19:39:20.719Z,103242.59
2023-02-27T19:41:47.111Z,103249.38
2023-02-27T19:44:13.444Z,103253.50
2023-02-27T19:46:42.101Z,103244.56
2023-02-27T19:49:08.459Z,103246.81
2023-02-27T19:51:34.947Z,103249.78
2023-02-27T19:54:01.364Z,103248.50
2023-02-27T19:56:28.708Z,103254.53
2023-02-27T19:58:55.543Z,103258.63
2023-02-27T20:01:28.288Z,103255.69
2023-02-27T20:03:55.923Z,103258.19
2023-02-27T20:06:24.645Z,103258.25
2023-02-27T20:08:52.244Z,103258.97
2023-02-27T20:11:19.273Z,103258.09
2023-02-27T20:13:46.855Z,103252.50
2023-02-27T20:16:15.287Z,103253.28
2023-02-27T20:18:42.227Z,103261.28
2023-02-27T20:21:19.982Z,103259.88
2023-02-27T20:23:47.141Z,103270.81
2023-02-27T20:26:26.845Z,103272.53
2023-02-27T20:28:55.570Z,103276.97
2023-02-27T20:31:24.576Z,103265.47
2023-02-27T20:33:51.831Z,103260.78
2023-02-27T20:36:18.276Z,103268.72
2023-02-27T20:38:45.065Z,103263.88
2023-02-27T20:41:14.056Z,103266.53
2023-02-27T20:43:40.710Z,103257.06
2023-02-27T20:46:09.732Z,103253.59
2023-02-27T20:48:36.091Z,103265.50
2023-02-27T20:51:11.575Z,103260.06
2023-02-27T20:53:40.512Z,103256.00
2023-02-27T20:56:08.225Z,103261.69
2023-02-27T20:58:35.052Z,103259.22
2023-02-27T21:01:01.420Z,103267.31
2023-02-27T21:03:31.266Z,103260.22
2023-02-27T21:06:02.763Z,103269.22
2023-02-27T21:08:29.300Z,103265.88
2023-02-27T21:10:55.661Z,103268.84
2023-02-27T21:13:22.074Z,103265.41
2023-02-27T21:15:49.930Z,103268.16
2023-02-27T21:18:16.739Z,103261.88
2023-02-27T21:20:44.279Z,103259.38
2023-02-27T21:23:10.793Z,103269.16
2023-02-27T21:25:42.355Z,103262.16
2023-02-27T21:28:09.249Z,103271.09
2023-02-27T21:30:36.230Z,103271.09
2023-02-27T21:33:04.523Z,103276.53
2023-02-27T21:35:31.281Z,103270.56
2023-02-27T21:37:57.644Z,103283.06
2023-02-27T21:40:24.292Z,103275.13
2023-02-27T21:42:50.689Z,103285.03
2023-02-27T21:45:17.240Z,103275.50
2023-02-27T21:47:43.655Z,103287.09
2023-02-27T21:50:11.180Z,103286.38
2023-02-27T21:52:37.549Z,103290.13
2023-02-27T21:55:04.357Z,103298.38
2023-02-27T21:57:30.733Z,103294.88
2023-02-27T21:59:57.073Z,103285.28
2023-02-27T22:02:23.479Z,103287.34
2023-02-27T22:04:50.042Z,103279.28
2023-02-27T22:07:16.548Z,103294.44
2023-02-27T22:09:42.982Z,103293.78
2023-02-27T22:12:09.380Z,103299.06
2023-02-27T22:14:36.034Z,103292.25
2023-02-27T22:17:02.535Z,103295.94
2023-02-27T22:19:28.869Z,103292.31
2023-02-27T22:21:55.233Z,103290.44
2023-02-27T22:24:21.786Z,103274.63
2023-02-27T22:26:48.562Z,103280.81
2023-02-27T22:29:15.325Z,103281.75
2023-02-27T22:31:41.910Z,103284.59
2023-02-27T22:34:12.404Z,103283.91
2023-02-27T22:36:39.642Z,103283.28
2023-02-27T22:39:06.359Z,103292.97
2023-02-27T22:41:36.253Z,103297.53
2023-02-27T22:44:03.163Z,103294.09
2023-02-27T22:46:38.327Z,103305.75
2023-02-27T22:49:08.522Z,103299.56
2023-02-27T22:51:35.636Z,103305.03
2023-02-27T22:54:04.791Z,103305.03
2023-02-27T22:56:32.401Z,103301.53
2023-02-27T22:58:59.173Z,103299.91
2023-02-27T23:01:27.985Z,103301.66
2023-02-27T23:03:57.482Z,103300.00
2023-02-27T23:06:26.616Z,103295.63
2023-02-27T23:08:53.243Z,103301.06
2023-02-27T23:11:20.719Z,103304.56
2023-02-27T23:13:47.667Z,103301.00
2023-02-27T23:16:14.783Z,103303.69
2023-02-27T23:18:46.579Z,103301.09
2023-02-27T23:21:15.639Z,103302.03
2023-02-27T23:23:42.279Z,103300.38
2023-02-27T23:26:09.212Z,103310.06
2023-02-27T23:28:36.720Z,103314.56
2023-02-27T23:31:05.184Z,103309.19
2023-02-27T23:33:32.382Z,103313.53
2023-02-27T23:35:58.815Z,103310.91
2023-02-27T23:38:25.872Z,103302.81
2023-02-27T23:40:52.894Z,103310.88
2023-02-27T23:43:19.638Z,103321.53
2023-02-27T23:45:46.153Z,103322.41
2023-02-27T23:48:12.689Z,103315.34
2023-02-27T23:50:41.940Z,103318.91
2023-02-27T23:53:08.487Z,103317.13
2023-02-27T23:55:36.490Z,103328.63
2023-02-27T23:58:06.374Z,103324.22
